createdAt,value
2023-03-21T00:01:29.542Z,78.24
2023-03-21T00:03:34.431Z,78.42
2023-03-21T00:05:40.406Z,78.05
2023-03-21T00:07:43.065Z,78.70
2023-03-21T00:09:45.057Z,78.49
2023-03-21T00:11:49.128Z,78.23
2023-03-21T00:13:50.829Z,78.24
2023-03-21T00:16:10.278Z,78.56
2023-03-21T00:18:15.889Z,78.00
2023-03-21T00:20:19.337Z,78.45
2023-03-21T00:22:22.018Z,78.38
2023-03-21T00:24:23.607Z,78.32
2023-03-21T00:26:25.270Z,78.86
2023-03-21T00:28:27.914Z,78.87
2023-03-21T00:30:29.729Z,78.64
2023-03-21T00:32:33.973Z,78.30
2023-03-21T00:34:43.042Z,78.17
2023-03-21T00:36:52.113Z,78.79
2023-03-21T00:38:54.419Z,78.45
2023-03-21T00:40:58.204Z,78.43
2023-03-21T00:43:02.041Z,78.24
2023-03-21T00:45:04.573Z,78.33
2023-03-21T00:47:09.498Z,78.83
2023-03-21T00:49:11.332Z,78.60
2023-03-21T00:51:15.639Z,78.41
2023-03-21T00:53:18.875Z,78.38
2023-03-21T00:55:20.885Z,78.62
2023-03-21T00:57:37.536Z,78.43
2023-03-21T00:59:40.938Z,78.59
2023-03-21T01:01:42.660Z,78.44
2023-03-21T01:03:44.738Z,78.58
2023-03-21T01:05:49.064Z,78.44
2023-03-21T01:07:52.640Z,78.69
2023-03-21T01:09:55.730Z,78.47
2023-03-21T01:11:57.383Z,78.83
2023-03-21T01:14:14.794Z,78.70
2023-03-21T01:16:20.711Z,78.55
2023-03-21T01:18:25.340Z,78.99
2023-03-21T01:20:27.726Z,78.59
2023-03-21T01:22:29.548Z,78.75
2023-03-21T01:24:35.670Z,78.47
2023-03-21T01:26:40.600Z,78.59
2023-03-21T01:28:44.182Z,78.64
2023-03-21T01:30:46.500Z,78.77
2023-03-21T01:32:48.217Z,78.59
2023-03-21T01:34:50.051Z,78.76
2023-03-21T01:36:51.837Z,78.13
2023-03-21T01:38:53.971Z,78.40
2023-03-21T01:40:56.232Z,78.92
2023-03-21T01:42:59.227Z,78.54
2023-03-21T01:45:04.902Z,78.23
2023-03-21T01:47:12.575Z,78.28
2023-03-21T01:49:19.169Z,78.33
2023-03-21T01:51:22.794Z,77.97
2023-03-21T01:53:28.528Z,78.61
2023-03-21T01:55:31.307Z,78.29
2023-03-21T01:57:47.248Z,78.01
2023-03-21T01:59:55.540Z,78.81
2023-03-21T02:02:01.291Z,78.53
2023-03-21T02:04:04.940Z,78.38
2023-03-21T02:06:12.306Z,78.54
2023-03-21T02:08:13.927Z,78.38
2023-03-21T02:10:16.900Z,78.42
2023-03-21T02:12:19.375Z,77.85
2023-03-21T02:14:28.889Z,77.69
2023-03-21T02:16:46.052Z,77.05
2023-03-21T02:18:55.254Z,77.71
2023-03-21T02:21:29.169Z,76.83
2023-03-21T02:24:05.525Z,77.00
2023-03-21T02:26:43.912Z,76.67
2023-03-21T02:28:49.882Z,77.95
2023-03-21T02:31:14.841Z,76.97
2023-03-21T02:33:46.964Z,77.07
2023-03-21T02:36:13.882Z,77.08
2023-03-21T02:38:24.651Z,77.95
2023-03-21T02:40:35.003Z,77.39
2023-03-21T02:42:59.490Z,77.66
2023-03-21T02:45:08.853Z,77.55
2023-03-21T02:47:18.551Z,77.56
2023-03-21T02:49:24.863Z,77.49
2023-03-21T02:51:30.397Z,77.76
2023-03-21T02:53:37.007Z,77.71
2023-03-21T02:55:42.275Z,77.69
2023-03-21T02:57:46.707Z,77.65
2023-03-21T02:59:56.881Z,77.90
2023-03-21T03:02:00.417Z,77.73
2023-03-21T03:04:02.285Z,77.94
2023-03-21T03:06:10.211Z,77.34
2023-03-21T03:08:36.125Z,77.31
2023-03-21T03:11:06.441Z,76.80
2023-03-21T03:13:19.967Z,77.14
2023-03-21T03:15:29.042Z,77.51
2023-03-21T03:17:43.852Z,76.82
2023-03-21T03:20:07.114Z,76.38
2023-03-21T03:24:28.132Z,77.36
2023-03-21T03:26:37.421Z,77.61
2023-03-21T03:28:48.203Z,76.78
2023-03-21T03:31:07.371Z,78.10
2023-03-21T03:33:12.019Z,77.54
2023-03-21T03:35:18.672Z,77.36
2023-03-21T03:37:23.828Z,77.71
2023-03-21T03:39:34.430Z,77.29
2023-03-21T03:44:06.091Z,77.74
2023-03-21T03:46:15.440Z,76.94
2023-03-21T03:48:24.423Z,77.13
2023-03-21T03:50:30.951Z,77.21
2023-03-21T03:52:42.074Z,77.17
2023-03-21T03:54:50.847Z,77.36
2023-03-21T03:56:54.902Z,77.01
2023-03-21T03:58:57.788Z,77.37
2023-03-21T04:00:59.401Z,77.28
2023-03-21T04:03:02.630Z,77.48
2023-03-21T04:05:05.759Z,77.18
2023-03-21T04:07:08.146Z,77.25
2023-03-21T04:09:20.645Z,77.83
2023-03-21T04:11:25.052Z,77.18
2023-03-21T04:15:32.488Z,77.74
2023-03-21T04:17:35.464Z,77.24
2023-03-21T04:19:36.984Z,77.44
2023-03-21T04:21:39.354Z,77.59
2023-03-21T04:23:42.333Z,77.59
2023-03-21T04:25:56.028Z,77.31
2023-03-21T04:27:58.357Z,77.71
2023-03-21T04:30:03.781Z,77.06
2023-03-21T04:32:06.023Z,77.82
2023-03-21T04:34:08.046Z,77.69
2023-03-21T04:36:11.144Z,77.50
2023-03-21T04:38:12.999Z,77.19
2023-03-21T04:40:15.572Z,77.26
2023-03-21T04:42:18.901Z,77.64
2023-03-21T04:44:20.932Z,77.82
2023-03-21T04:46:24.550Z,77.67
2023-03-21T04:48:26.369Z,78.00
2023-03-21T04:50:28.238Z,77.44
2023-03-21T04:52:30.128Z,78.37
2023-03-21T04:54:31.890Z,77.75
2023-03-21T04:56:36.199Z,77.78
2023-03-21T04:58:39.480Z,77.97
2023-03-21T05:00:41.091Z,78.47
2023-03-21T05:02:44.891Z,78.24
2023-03-21T05:04:46.685Z,77.93
2023-03-21T05:06:48.335Z,78.59
2023-03-21T05:08:50.165Z,78.64
2023-03-21T05:10:51.920Z,78.57
2023-03-21T05:12:53.513Z,78.52
2023-03-21T05:14:55.412Z,78.23
2023-03-21T05:16:57.452Z,78.75
2023-03-21T05:19:01.316Z,78.54
2023-03-21T05:21:03.620Z,78.40
2023-03-21T05:23:05.410Z,78.25
2023-03-21T05:25:09.034Z,78.53
2023-03-21T05:27:10.787Z,78.39
2023-03-21T05:29:12.334Z,78.55
2023-03-21T05:31:16.554Z,78.61
2023-03-21T05:33:18.201Z,78.54
2023-03-21T05:35:21.331Z,78.86
2023-03-21T05:37:23.466Z,78.33
2023-03-21T05:39:25.049Z,78.94
2023-03-21T05:41:26.650Z,78.52
2023-03-21T05:43:28.639Z,78.59
2023-03-21T05:45:30.671Z,78.25
2023-03-21T05:47:32.751Z,78.65
2023-03-21T05:49:34.583Z,78.41
2023-03-21T05:51:37.873Z,78.61
2023-03-21T05:53:39.733Z,78.69
2023-03-21T05:55:41.498Z,78.38
2023-03-21T05:57:43.868Z,78.57
2023-03-21T05:59:46.179Z,78.03
2023-03-21T06:01:48.004Z,78.18
2023-03-21T06:03:49.846Z,78.24
2023-03-21T06:05:51.534Z,78.58
2023-03-21T06:07:54.753Z,78.28
2023-03-21T06:09:59.336Z,78.36
2023-03-21T06:12:02.918Z,78.62
2023-03-21T06:14:04.848Z,77.94
2023-03-21T06:16:07.398Z,78.00
2023-03-21T06:18:09.250Z,77.90
2023-03-21T06:20:11.773Z,78.44
2023-03-21T06:22:13.494Z,78.14
2023-03-21T06:24:18.280Z,78.56
2023-03-21T06:26:19.970Z,78.11
2023-03-21T06:28:21.933Z,78.49
2023-03-21T06:30:23.984Z,78.25
2023-03-21T06:32:26.361Z,78.24
2023-03-21T06:34:29.211Z,78.11
2023-03-21T06:36:30.896Z,77.86
2023-03-21T06:38:32.552Z,78.28
2023-03-21T06:40:35.887Z,78.45
2023-03-21T06:42:38.755Z,77.98
2023-03-21T06:44:41.084Z,77.64
2023-03-21T06:46:43.203Z,77.57
2023-03-21T06:48:45.002Z,77.37
2023-03-21T06:50:49.015Z,77.50
2023-03-21T06:52:50.839Z,77.44
2023-03-21T06:54:52.450Z,77.91
2023-03-21T06:56:55.478Z,77.60
2023-03-21T06:58:57.072Z,77.67
2023-03-21T07:00:59.269Z,77.32
2023-03-21T07:03:00.901Z,77.25
2023-03-21T07:05:04.664Z,77.62
2023-03-21T07:07:06.839Z,77.50
2023-03-21T07:09:08.474Z,77.59
2023-03-21T07:11:10.539Z,77.24
2023-03-21T07:13:14.249Z,77.64
2023-03-21T07:15:15.948Z,77.67
2023-03-21T07:17:17.548Z,77.69
2023-03-21T07:19:19.164Z,77.44
2023-03-21T07:21:20.817Z,76.92
2023-03-21T07:23:24.469Z,77.15
2023-03-21T07:25:26.478Z,77.38
2023-03-21T07:27:28.361Z,77.22
2023-03-21T07:29:31.596Z,77.30
2023-03-21T07:31:33.241Z,77.40
2023-03-21T07:33:35.099Z,77.79
2023-03-21T07:35:37.028Z,78.08
2023-03-21T07:37:39.847Z,77.31
2023-03-21T07:39:41.411Z,77.17
2023-03-21T07:41:42.994Z,76.69
2023-03-21T07:43:44.849Z,77.09
2023-03-21T07:45:47.929Z,76.48
2023-03-21T07:47:49.558Z,76.53
2023-03-21T07:49:51.434Z,76.78
2023-03-21T07:51:53.402Z,76.87
2023-03-21T07:53:54.999Z,76.08
2023-03-21T07:55:57.100Z,76.44
2023-03-21T07:58:00.105Z,76.08
2023-03-21T08:00:01.732Z,76.51
2023-03-21T08:02:07.767Z,76.51
2023-03-21T08:04:09.753Z,76.43
2023-03-21T08:06:11.842Z,76.04
2023-03-21T08:08:15.278Z,75.75
2023-03-21T08:10:18.343Z,75.95
2023-03-21T08:12:20.148Z,76.48
2023-03-21T08:14:22.215Z,75.70
2023-03-21T08:16:24.096Z,75.46
2023-03-21T08:18:27.589Z,75.36
2023-03-21T08:20:32.898Z,75.37
2023-03-21T08:22:34.923Z,74.88
2023-03-21T08:24:36.938Z,74.93
2023-03-21T08:26:39.018Z,74.81
2023-03-21T08:28:40.700Z,74.64
2023-03-21T08:30:42.664Z,74.97
2023-03-21T08:32:44.960Z,74.47
2023-03-21T08:34:48.155Z,74.91
2023-03-21T08:36:49.990Z,74.70
2023-03-21T08:38:52.477Z,74.35
2023-03-21T08:40:54.334Z,74.48
2023-03-21T08:42:56.195Z,73.89
2023-03-21T08:44:59.953Z,73.82
2023-03-21T08:47:01.593Z,73.87
2023-03-21T08:49:03.468Z,73.07
2023-03-21T08:51:07.230Z,73.42
2023-03-21T08:53:11.013Z,73.70
2023-03-21T08:55:13.858Z,73.79
2023-03-21T08:57:15.854Z,73.49
2023-03-21T08:59:17.678Z,73.86
2023-03-21T09:01:19.507Z,72.61
2023-03-21T09:03:23.138Z,72.66
2023-03-21T09:05:25.626Z,72.82
2023-03-21T09:07:31.680Z,72.99
2023-03-21T09:09:33.778Z,73.14
2023-03-21T09:11:35.775Z,72.21
2023-03-21T09:13:37.606Z,71.25
2023-03-21T09:15:39.768Z,70.90
2023-03-21T09:17:41.864Z,71.26
2023-03-21T09:19:43.497Z,70.61
2023-03-21T09:21:46.100Z,69.46
2023-03-21T09:23:52.163Z,69.91
2023-03-21T09:25:55.848Z,70.14
2023-03-21T09:27:57.431Z,70.28
2023-03-21T09:29:59.047Z,70.66
2023-03-21T09:32:00.990Z,69.52
2023-03-21T09:34:02.918Z,69.71
2023-03-21T09:36:05.651Z,69.07
2023-03-21T09:38:07.647Z,67.83
2023-03-21T09:40:17.224Z,68.99
2023-03-21T09:42:33.620Z,69.48
2023-03-21T09:44:49.138Z,68.84
2023-03-21T09:47:01.093Z,69.76
2023-03-21T09:49:06.961Z,70.11
2023-03-21T09:51:14.079Z,69.81
2023-03-21T09:53:25.300Z,69.39
2023-03-21T09:55:31.357Z,68.03
2023-03-21T09:57:38.478Z,67.67
2023-03-21T09:59:41.156Z,66.00
2023-03-21T10:01:46.512Z,66.87
2023-03-21T10:03:49.383Z,66.53
2023-03-21T10:05:52.485Z,67.06
2023-03-21T10:07:58.593Z,65.29
2023-03-21T10:10:03.388Z,65.46
2023-03-21T10:12:14.734Z,64.97
2023-03-21T10:14:21.592Z,64.88
2023-03-21T10:16:29.307Z,66.25
2023-03-21T10:18:35.104Z,64.71
2023-03-21T10:20:38.891Z,63.36
2023-03-21T10:22:40.857Z,64.89
2023-03-21T10:24:45.288Z,63.56
2023-03-21T10:26:48.142Z,64.12
2023-03-21T10:28:53.392Z,64.20
2023-03-21T10:30:58.845Z,63.71
2023-03-21T10:33:05.839Z,64.27
2023-03-21T10:35:13.876Z,64.40
2023-03-21T10:37:16.357Z,64.06
2023-03-21T10:39:25.176Z,63.94
2023-03-21T10:41:26.976Z,64.24
2023-03-21T10:43:35.934Z,63.99
2023-03-21T10:45:39.252Z,64.26
2023-03-21T10:47:44.804Z,64.03
2023-03-21T10:50:06.944Z,63.09
2023-03-21T10:52:19.772Z,64.49
2023-03-21T10:54:25.482Z,63.33
2023-03-21T10:56:29.213Z,63.26
2023-03-21T10:58:35.604Z,63.18
2023-03-21T11:00:41.461Z,62.79
2023-03-21T11:02:47.875Z,62.41
2023-03-21T11:04:52.296Z,62.28
2023-03-21T11:06:56.377Z,62.81
2023-03-21T11:09:02.893Z,63.37
2023-03-21T11:11:07.130Z,62.19
2023-03-21T11:13:18.875Z,64.02
2023-03-21T11:15:29.319Z,63.29
2023-03-21T11:17:35.679Z,63.05
2023-03-21T11:19:37.622Z,62.43
2023-03-21T11:21:39.805Z,61.59
2023-03-21T11:23:45.543Z,62.14
2023-03-21T11:25:51.329Z,62.60
2023-03-21T11:27:55.365Z,62.88
2023-03-21T11:29:58.860Z,63.23
2023-03-21T11:32:09.016Z,62.97
2023-03-21T11:34:25.697Z,63.54
2023-03-21T11:36:32.973Z,62.87
2023-03-21T11:38:38.771Z,62.98
2023-03-21T11:40:54.190Z,64.12
2023-03-21T11:42:58.020Z,62.02
2023-03-21T11:45:11.047Z,63.30
2023-03-21T11:47:12.719Z,63.21
2023-03-21T11:49:15.710Z,63.30
2023-03-21T11:51:26.920Z,62.55
2023-03-21T11:53:37.897Z,63.47
2023-03-21T11:55:51.095Z,62.63
2023-03-21T11:58:13.900Z,62.64
2023-03-21T12:00:22.341Z,62.49
2023-03-21T12:02:43.661Z,63.22
2023-03-21T12:04:53.195Z,62.31
2023-03-21T12:07:02.764Z,61.34
2023-03-21T12:09:24.143Z,61.72
2023-03-21T12:11:32.593Z,62.24
2023-03-21T12:13:48.061Z,62.84
2023-03-21T12:16:01.365Z,62.46
2023-03-21T12:18:13.989Z,62.63
2023-03-21T12:20:30.479Z,62.33
2023-03-21T12:22:41.343Z,62.37
2023-03-21T12:24:50.843Z,62.96
2023-03-21T12:27:00.649Z,62.51
2023-03-21T12:29:19.713Z,62.70
2023-03-21T12:31:28.938Z,62.04
2023-03-21T12:33:45.070Z,62.99
2023-03-21T12:36:12.437Z,63.11
2023-03-21T12:38:18.267Z,61.84
2023-03-21T12:40:37.941Z,62.79
2023-03-21T12:42:58.492Z,62.17
2023-03-21T12:45:15.268Z,61.55
2023-03-21T12:47:24.696Z,62.29
2023-03-21T12:49:33.588Z,62.58
2023-03-21T12:51:41.483Z,62.23
2023-03-21T12:53:54.875Z,62.84
2023-03-21T12:56:01.435Z,62.08
2023-03-21T12:58:06.967Z,62.09
2023-03-21T13:00:16.158Z,61.94
2023-03-21T13:02:24.204Z,62.74
2023-03-21T13:04:39.141Z,62.42
2023-03-21T13:06:44.767Z,62.69
2023-03-21T13:08:53.032Z,62.66
2023-03-21T13:10:56.595Z,62.69
2023-03-21T13:13:13.427Z,63.07
2023-03-21T13:15:33.144Z,63.65
2023-03-21T13:17:41.697Z,62.90
2023-03-21T13:19:51.405Z,63.54
2023-03-21T13:22:06.142Z,63.41
2023-03-21T13:24:23.520Z,63.44
2023-03-21T13:26:33.514Z,63.37
2023-03-21T13:28:37.059Z,63.17
2023-03-21T13:30:39.215Z,63.17
2023-03-21T13:32:42.988Z,63.35
2023-03-21T13:34:45.266Z,63.86
2023-03-21T13:36:52.054Z,63.04
2023-03-21T13:39:00.734Z,63.61
2023-03-21T13:41:07.607Z,63.62
2023-03-21T13:43:32.705Z,63.76
2023-03-21T13:45:46.289Z,63.84
2023-03-21T13:47:54.803Z,63.83
2023-03-21T13:50:27.122Z,63.93
2023-03-21T13:52:29.237Z,64.14
2023-03-21T13:54:52.338Z,64.09
2023-03-21T13:56:56.616Z,63.83
2023-03-21T13:59:00.922Z,63.77
2023-03-21T14:01:16.803Z,64.17
2023-03-21T14:03:18.827Z,64.09
2023-03-21T14:05:25.247Z,64.79
2023-03-21T14:07:30.467Z,64.80
2023-03-21T14:09:36.794Z,64.62
2023-03-21T14:11:44.538Z,64.62
2023-03-21T14:13:51.537Z,64.66
2023-03-21T14:15:56.739Z,64.67
2023-03-21T14:18:06.454Z,64.35
2023-03-21T14:20:22.670Z,64.33
2023-03-21T14:22:24.517Z,64.41
2023-03-21T14:24:26.064Z,63.95
2023-03-21T14:26:30.483Z,64.34
2023-03-21T14:28:33.621Z,64.23
2023-03-21T14:30:39.255Z,64.68
2023-03-21T14:32:41.728Z,64.71
2023-03-21T14:34:45.644Z,63.92
2023-03-21T14:36:55.432Z,64.31
2023-03-21T14:39:06.672Z,64.76
2023-03-21T14:41:22.952Z,64.50
2023-03-21T14:43:26.067Z,64.81
2023-03-21T14:45:30.031Z,65.25
2023-03-21T14:47:31.816Z,65.24
2023-03-21T14:49:36.526Z,65.19
2023-03-21T14:51:38.880Z,65.23
2023-03-21T14:53:43.092Z,64.94
2023-03-21T14:55:48.119Z,65.43
2023-03-21T14:57:50.024Z,65.41
2023-03-21T14:59:55.217Z,65.28
2023-03-21T15:01:59.942Z,65.67
2023-03-21T15:04:06.446Z,65.62
2023-03-21T15:06:13.840Z,65.64
2023-03-21T15:08:20.240Z,66.22
2023-03-21T15:10:22.222Z,66.11
2023-03-21T15:12:24.275Z,66.33
2023-03-21T15:14:30.320Z,66.63
2023-03-21T15:16:32.313Z,67.05
2023-03-21T15:18:40.594Z,67.24
2023-03-21T15:20:48.335Z,67.75
2023-03-21T15:22:53.879Z,68.06
2023-03-21T15:25:00.808Z,68.07
2023-03-21T15:27:05.723Z,68.23
2023-03-21T15:29:07.700Z,68.48
2023-03-21T15:31:19.316Z,68.39
2023-03-21T15:33:25.017Z,68.74
2023-03-21T15:35:33.924Z,68.62
2023-03-21T15:37:37.488Z,68.95
2023-03-21T15:39:41.504Z,69.32
2023-03-21T15:41:57.878Z,68.55
2023-03-21T15:44:13.421Z,68.96
2023-03-21T15:46:17.381Z,69.25
2023-03-21T15:48:25.869Z,69.88
2023-03-21T15:50:35.470Z,69.31
2023-03-21T15:52:38.219Z,69.85
2023-03-21T15:54:44.719Z,69.95
2023-03-21T15:56:48.808Z,70.06
2023-03-21T15:58:52.780Z,69.98
2023-03-21T16:00:57.129Z,69.86
2023-03-21T16:03:04.556Z,69.95
2023-03-21T16:05:23.591Z,69.23
2023-03-21T16:07:27.168Z,70.23
2023-03-21T16:09:39.370Z,69.60
2023-03-21T16:11:43.665Z,70.57
2023-03-21T16:13:46.262Z,70.51
2023-03-21T16:15:47.915Z,70.67
2023-03-21T16:17:51.786Z,71.08
2023-03-21T16:19:54.832Z,71.13
2023-03-21T16:21:56.468Z,70.86
2023-03-21T16:23:59.868Z,70.99
2023-03-21T16:26:03.232Z,70.97
2023-03-21T16:28:05.203Z,71.41
2023-03-21T16:30:10.100Z,71.15
2023-03-21T16:32:15.276Z,71.63
2023-03-21T16:34:17.312Z,71.82
2023-03-21T16:36:22.749Z,71.72
2023-03-21T16:38:24.404Z,71.88
2023-03-21T16:40:30.361Z,71.52
2023-03-21T16:42:34.670Z,71.58
2023-03-21T16:44:36.321Z,72.22
2023-03-21T16:46:39.423Z,72.00
2023-03-21T16:48:43.350Z,72.23
2023-03-21T16:50:47.371Z,72.83
2023-03-21T16:52:50.197Z,72.77
2023-03-21T16:54:51.876Z,72.79
2023-03-21T16:56:56.738Z,72.81
2023-03-21T16:58:58.675Z,73.23
2023-03-21T17:01:00.517Z,73.40
2023-03-21T17:03:08.897Z,73.22
2023-03-21T17:05:10.498Z,73.13
2023-03-21T17:07:13.732Z,73.22
2023-03-21T17:09:18.031Z,73.56
2023-03-21T17:11:22.061Z,73.70
2023-03-21T17:13:25.360Z,74.00
2023-03-21T17:15:27.007Z,73.94
2023-03-21T17:17:28.873Z,73.90
2023-03-21T17:19:31.022Z,74.16
2023-03-21T17:21:32.650Z,73.76
2023-03-21T17:23:34.288Z,74.00
2023-03-21T17:25:37.516Z,74.33
2023-03-21T17:27:40.489Z,74.32
2023-03-21T17:29:44.031Z,74.14
2023-03-21T17:31:45.591Z,74.03
2023-03-21T17:33:49.717Z,74.29
2023-03-21T17:35:51.619Z,74.23
2023-03-21T17:37:54.627Z,73.88
2023-03-21T17:39:56.228Z,74.21
2023-03-21T17:41:57.799Z,73.70
2023-03-21T17:43:59.398Z,73.93
2023-03-21T17:46:03.092Z,74.23
2023-03-21T17:48:05.211Z,74.14
2023-03-21T17:50:18.368Z,73.67
2023-03-21T17:52:20.180Z,74.27
2023-03-21T17:54:21.814Z,74.80
2023-03-21T17:56:26.122Z,74.56
2023-03-21T17:58:27.736Z,75.06
2023-03-21T18:00:30.661Z,75.02
2023-03-21T18:02:34.077Z,75.43
2023-03-21T18:04:37.602Z,75.24
2023-03-21T18:06:40.223Z,75.36
2023-03-21T18:08:41.830Z,75.90
2023-03-21T18:10:44.247Z,75.65
2023-03-21T18:12:46.114Z,76.08
2023-03-21T18:14:49.495Z,76.04
2023-03-21T18:16:51.347Z,76.23
2023-03-21T18:18:55.556Z,76.47
2023-03-21T18:20:58.558Z,76.27
2023-03-21T18:23:00.622Z,76.72
2023-03-21T18:25:04.929Z,76.82
2023-03-21T18:27:06.777Z,76.80
2023-03-21T18:31:33.651Z,76.90
2023-03-21T18:33:36.605Z,77.05
2023-03-21T18:35:40.163Z,77.09
2023-03-21T18:37:43.861Z,76.97
2023-03-21T18:39:45.930Z,77.30
2023-03-21T18:41:47.806Z,77.44
2023-03-21T18:44:17.613Z,77.23
2023-03-21T18:46:11.609Z,77.20
2023-03-21T18:48:13.748Z,77.15
2023-03-21T18:50:15.647Z,77.81
2023-03-21T18:52:19.206Z,77.97
2023-03-21T18:54:21.104Z,78.38
2023-03-21T18:57:06.362Z,77.99
2023-03-21T18:58:45.164Z,78.03
2023-03-21T19:00:47.265Z,77.88
2023-03-21T19:02:51.155Z,77.96
2023-03-21T19:04:53.654Z,78.10
2023-03-21T19:06:55.957Z,78.32
2023-03-21T19:08:59.679Z,78.15
2023-03-21T19:11:05.930Z,77.97
2023-03-21T19:13:08.415Z,78.27
2023-03-21T19:15:10.724Z,78.46
2023-03-21T19:19:34.466Z,78.56
2023-03-21T19:21:36.739Z,78.54
2023-03-21T19:24:07.939Z,78.71
2023-03-21T19:26:01.679Z,78.48
2023-03-21T19:28:03.949Z,78.68
2023-03-21T19:30:16.499Z,78.75
2023-03-21T19:32:18.278Z,78.61
2023-03-21T19:34:20.154Z,78.62
2023-03-21T19:36:23.321Z,78.85
2023-03-21T19:38:26.352Z,78.76
2023-03-21T19:40:28.347Z,79.23
2023-03-21T19:42:34.099Z,78.99
2023-03-21T19:44:36.306Z,78.74
2023-03-21T19:46:40.517Z,78.90
2023-03-21T19:48:42.621Z,79.24
2023-03-21T19:51:13.414Z,79.17
2023-03-21T19:53:07.122Z,79.16
2023-03-21T19:55:09.403Z,79.20
2023-03-21T19:57:11.516Z,79.30
2023-03-21T19:59:14.786Z,79.24
2023-03-21T20:01:17.333Z,78.95
2023-03-21T20:03:19.344Z,79.16
2023-03-21T20:05:20.999Z,78.71
2023-03-21T20:07:23.811Z,79.65
2023-03-21T20:09:50.475Z,79.57
2023-03-21T20:11:47.382Z,78.80
2023-03-21T20:13:49.135Z,79.22
2023-03-21T20:15:55.459Z,79.04
2023-03-21T20:17:58.517Z,79.38
2023-03-21T20:20:01.398Z,79.28
2023-03-21T20:22:06.072Z,79.15
2023-03-21T20:24:09.338Z,79.55
2023-03-21T20:26:12.039Z,79.13
2023-03-21T20:28:20.074Z,79.25
2023-03-21T20:30:26.475Z,79.04
2023-03-21T20:32:29.464Z,79.39
2023-03-21T20:34:31.723Z,79.38
2023-03-21T20:36:40.820Z,79.30
2023-03-21T20:38:45.549Z,79.50
2023-03-21T20:40:49.222Z,79.43
2023-03-21T20:42:51.478Z,78.99
2023-03-21T20:44:58.729Z,79.24
2023-03-21T20:47:01.905Z,79.44
2023-03-21T20:49:05.328Z,79.63
2023-03-21T20:52:00.239Z,79.48
2023-03-21T20:53:32.452Z,79.47
2023-03-21T20:55:34.043Z,79.91
2023-03-21T20:57:38.630Z,79.68
2023-03-21T20:59:40.643Z,79.57
2023-03-21T21:01:42.845Z,79.64
2023-03-21T21:03:44.740Z,79.81
2023-03-21T21:05:47.757Z,79.95
2023-03-21T21:07:49.810Z,80.14
2023-03-21T21:09:51.643Z,80.19
2023-03-21T21:12:06.562Z,80.01
2023-03-21T21:14:08.877Z,79.56
2023-03-21T21:16:11.172Z,80.23
2023-03-21T21:18:13.055Z,79.80
2023-03-21T21:20:15.136Z,79.91
2023-03-21T21:22:18.100Z,80.21
2023-03-21T21:24:19.982Z,80.14
2023-03-21T21:26:21.858Z,80.05
2023-03-21T21:28:24.901Z,79.99
2023-03-21T21:30:26.725Z,80.18
2023-03-21T21:32:28.972Z,80.02
2023-03-21T21:34:31.043Z,79.91
2023-03-21T21:36:32.870Z,79.88
2023-03-21T21:38:36.593Z,79.90
2023-03-21T21:40:38.408Z,80.36
2023-03-21T21:42:41.372Z,80.13
2023-03-21T21:44:43.076Z,80.21
2023-03-21T21:46:44.778Z,80.57
2023-03-21T21:48:46.422Z,80.16
2023-03-21T21:50:49.965Z,81.14
2023-03-21T21:52:51.813Z,80.59
2023-03-21T21:54:55.375Z,80.46
2023-03-21T21:56:57.181Z,80.31
2023-03-21T21:59:00.207Z,80.40
2023-03-21T22:01:03.619Z,80.64
2023-03-21T22:03:05.950Z,80.75
2023-03-21T22:05:09.105Z,80.24
2023-03-21T22:07:11.173Z,80.02
2023-03-21T22:09:12.968Z,80.33
2023-03-21T22:11:16.061Z,80.35
2023-03-21T22:13:17.895Z,80.05
2023-03-21T22:15:20.058Z,80.03
2023-03-21T22:17:21.678Z,80.00
2023-03-21T22:19:23.848Z,79.85
2023-03-21T22:21:25.932Z,80.31
2023-03-21T22:23:29.000Z,79.95
2023-03-21T22:25:30.622Z,79.63
2023-03-21T22:27:34.221Z,80.10
2023-03-21T22:29:35.961Z,79.84
2023-03-21T22:31:38.124Z,79.98
2023-03-21T22:33:40.036Z,80.32
2023-03-21T22:35:41.956Z,80.01
2023-03-21T22:37:43.849Z,80.19
2023-03-21T22:39:45.671Z,79.85
2023-03-21T22:41:47.291Z,79.94
2023-03-21T22:43:50.570Z,79.79
2023-03-21T22:45:54.078Z,79.97
2023-03-21T22:47:56.471Z,79.67
2023-03-21T22:49:58.639Z,79.49
2023-03-21T22:52:01.171Z,79.45
2023-03-21T22:54:02.816Z,79.11
2023-03-21T22:56:06.296Z,79.87
2023-03-21T22:58:08.231Z,79.26
2023-03-21T23:00:13.066Z,79.25
2023-03-21T23:02:15.399Z,79.22
2023-03-21T23:04:17.804Z,79.15
2023-03-21T23:06:19.670Z,79.09
2023-03-21T23:08:21.796Z,78.80
2023-03-21T23:10:23.419Z,78.97
2023-03-21T23:12:25.011Z,79.05
2023-03-21T23:14:26.946Z,78.90
2023-03-21T23:16:30.546Z,79.19
2023-03-21T23:18:32.760Z,78.84
2023-03-21T23:20:34.604Z,78.91
2023-03-21T23:22:36.830Z,78.94
2023-03-21T23:24:40.237Z,79.35
2023-03-21T23:26:42.130Z,79.30
2023-03-21T23:28:44.478Z,78.80
2023-03-21T23:30:46.842Z,79.09
2023-03-21T23:32:49.998Z,79.12
2023-03-21T23:34:51.723Z,78.95
2023-03-21T23:36:53.309Z,78.93
2023-03-21T23:38:55.161Z,79.09
2023-03-21T23:40:57.526Z,78.92
2023-03-21T23:43:00.789Z,79.03
2023-03-21T23:45:02.462Z,78.80
2023-03-21T23:47:04.435Z,79.04
2023-03-21T23:49:07.515Z,78.94
2023-03-21T23:51:09.484Z,78.41
2023-03-21T23:53:12.532Z,78.65
2023-03-21T23:55:14.308Z,78.70
2023-03-21T23:57:16.059Z,78.46
2023-03-21T23:59:19.162Z,78.56
